Time;durP1;ratioP1;P1;durP2;ratioP2;P2;SDS_P1;SDS_P2;PMS_P1;PMS_P2;Temp;Humidity;BMP_temperature;BMP_pressure;BME280_temperature;BME280_humidity;BME280_pressure;Samples;Min_cycle;Max_cycle;Signal;HPM_P1;HPM_P2
2022/07/07 00:00:21;;;;;;;4.42;0.90;;;;;;;13.06;68.95;99646.23;1756206;78;21062;-61
2022/07/07 00:02:50;;;;;;;1.72;0.72;;;;;;;13.03;68.91;99646.42;1774847;79;21013;-62
2022/07/07 00:05:17;;;;;;;;;;;;;;;13.01;69.00;99645.66;1775990;79;21479;-62
2022/07/07 00:07:44;;;;;;;2.12;0.60;;;;;;;13.01;69.15;99639.58;1778479;79;20145;-61
2022/07/07 00:10:11;;;;;;;2.85;0.90;;;;;;;12.99;69.16;99642.27;1778395;78;21061;-61
2022/07/07 00:12:38;;;;;;;2.65;1.00;;;;;;;12.97;69.21;99645.00;1774012;79;20977;-62
2022/07/07 00:15:07;;;;;;;4.35;1.07;;;;;;;12.97;69.23;99638.45;1780023;79;21045;-62
2022/07/07 00:17:34;;;;;;;2.42;0.85;;;;;;;12.97;69.30;99638.92;1787143;79;21086;-62
2022/07/07 00:20:00;;;;;;;3.60;1.25;;;;;;;12.94;69.33;99632.08;1791293;79;21041;-61
2022/07/07 00:22:27;;;;;;;2.52;0.98;;;;;;;12.95;69.35;99635.54;1789135;79;21064;-62
2022/07/07 00:24:54;;;;;;;2.02;0.68;;;;;;;12.96;69.43;99638.52;1787297;79;21086;-62
2022/07/07 00:27:21;;;;;;;5.08;1.47;;;;;;;12.95;69.63;99632.92;1787960;79;21625;-61
2022/07/07 00:29:48;;;;;;;4.30;1.15;;;;;;;12.95;69.63;99632.92;1787283;79;21182;-61
2022/07/07 00:32:15;;;;;;;2.15;0.85;;;;;;;12.95;69.66;99626.37;1790881;77;21883;-61
2022/07/07 00:34:42;;;;;;;1.55;1.00;;;;;;;12.96;69.65;99624.11;1791718;78;23242;-62
2022/07/07 00:37:08;;;;;;;4.30;1.37;;;;;;;12.97;69.81;99620.58;1795236;78;21568;-61
2022/07/07 00:39:35;;;;;;;4.08;1.15;;;;;;;12.96;69.79;99620.18;1795042;78;21500;-61
2022/07/07 00:42:02;;;;;;;5.57;0.70;;;;;;;12.97;69.87;99620.58;1798585;78;21407;-62
2022/07/07 00:44:29;;;;;;;6.85;1.25;;;;;;;12.97;69.90;99623.20;1794629;78;21679;-61
2022/07/07 00:46:58;;;;;;;3.22;0.90;;;;;;;12.97;69.97;99611.41;1778468;79;20970;-61
2022/07/07 00:49:25;;;;;;;2.40;0.90;;;;;;;12.98;70.01;99611.77;1773999;79;21672;-62
2022/07/07 00:51:52;;;;;;;3.67;0.75;;;;;;;13.01;70.06;99616.83;1788935;79;21004;-61
2022/07/07 00:54:20;;;;;;;2.15;0.62;;;;;;;13.02;70.07;99611.95;1804497;78;21816;-61
2022/07/07 00:56:47;;;;;;;6.22;1.00;;;;;;;13.02;70.14;99606.70;1776442;79;21053;-61
2022/07/07 01:01:09;;;;;;;3.85;0.62;;;;;;;13.09;70.32;99605.89;1857199;75;23354;-60
2022/07/07 01:03:37;;;;;;;4.20;1.00;;;;;;;13.04;70.26;99606.16;1818258;77;20991;-60
2022/07/07 01:06:04;;;;;;;2.12;0.60;;;;;;;13.04;70.29;99606.16;1827117;76;21735;-61
2022/07/07 01:08:31;;;;;;;1.87;0.57;;;;;;;13.03;70.35;99604.48;1829373;77;24857;-61
2022/07/07 01:10:58;;;;;;;4.62;0.78;;;;;;;13.05;70.34;99602.63;1780962;79;20992;-60
2022/07/07 01:13:24;;;;;;;2.73;0.77;;;;;;;13.07;70.34;99599.89;1776216;79;21037;-60
2022/07/07 01:15:51;;;;;;;4.90;0.85;;;;;;;13.07;70.40;99598.11;1785369;78;20993;-61
2022/07/07 01:18:18;;;;;;;3.60;0.70;;;;;;;13.07;70.46;99595.48;1781181;79;20964;-60
2022/07/07 01:20:47;;;;;;;3.10;1.15;;;;;;;13.09;70.44;99598.03;1784310;78;21511;-60
2022/07/07 01:23:14;;;;;;;3.27;0.70;;;;;;;13.10;70.44;99596.61;1779309;78;21037;-61
2022/07/07 01:25:42;;;;;;;2.52;0.60;;;;;;;13.13;70.47;99593.80;1781025;78;28248;-60
2022/07/07 01:28:08;;;;;;;4.65;0.98;;;;;;;13.13;70.55;99592.49;1738011;79;21084;-61
2022/07/07 01:30:35;;;;;;;3.92;0.90;;;;;;;13.14;70.57;99588.13;1776878;79;21120;-60
2022/07/07 01:33:02;;;;;;;3.83;0.70;;;;;;;13.15;70.60;99586.70;1777892;79;21082;-61
2022/07/07 01:35:28;;;;;;;3.55;1.80;;;;;;;13.16;70.58;99592.34;1778332;78;21821;-60
2022/07/07 01:37:55;;;;;;;5.17;0.80;;;;;;;13.15;70.62;99583.24;1778816;79;21049;-61
2022/07/07 01:40:22;;;;;;;4.17;0.80;;;;;;;13.13;70.61;99584.63;1785063;79;20898;-60
2022/07/07 01:42:49;;;;;;;10.23;1.67;;;;;;;13.13;70.65;99578.08;1776931;79;21123;-60
2022/07/07 01:45:15;;;;;;;5.07;1.00;;;;;;;13.12;70.69;99583.43;1780344;79;21045;-61
2022/07/07 01:47:42;;;;;;;3.42;1.32;;;;;;;13.08;70.67;99581.47;1776512;79;20992;-61
2022/07/07 01:50:10;;;;;;;4.08;0.95;;;;;;;13.08;70.79;99576.23;1781825;79;20941;-60
2022/07/07 01:52:37;;;;;;;3.77;0.90;;;;;;;13.10;70.78;99579.58;1787621;78;21532;-60
2022/07/07 01:55:05;;;;;;;3.02;0.80;;;;;;;13.08;70.82;99581.47;1787962;78;21021;-61
2022/07/07 01:57:32;;;;;;;4.22;0.55;;;;;;;13.08;70.87;99584.09;1772468;79;20918;-61
2022/07/07 01:59:59;;;;;;;4.28;0.98;;;;;;;13.10;70.88;99580.05;1772566;79;21083;-60
2022/07/07 02:02:26;;;;;;;4.55;0.60;;;;;;;13.07;70.85;99573.20;1775643;79;21092;-60
2022/07/07 02:04:53;;;;;;;2.70;0.93;;;;;;;13.06;70.89;99572.84;1775564;79;21022;-62
2022/07/07 02:07:20;;;;;;;3.77;1.32;;;;;;;13.05;70.92;99577.72;1772858;79;21464;-61
2022/07/07 02:09:47;;;;;;;2.37;0.90;;;;;;;13.07;71.01;99576.30;1768981;79;21579;-61
2022/07/07 02:12:13;;;;;;;2.30;0.70;;;;;;;13.07;71.07;99573.69;1768143;79;21029;-61
2022/07/07 02:14:40;;;;;;;5.67;0.97;;;;;;;13.06;71.06;99575.47;1775202;79;21123;-60
2022/07/07 02:17:07;;;;;;;3.17;0.90;;;;;;;13.06;71.08;99572.84;1773517;79;21041;-60
2022/07/07 02:19:34;;;;;;;6.40;1.53;;;;;;;13.06;71.10;99566.77;1770155;79;22232;-60
2022/07/07 02:22:01;;;;;;;3.37;0.72;;;;;;;13.05;71.08;99568.55;1765780;79;21048;-61
2022/07/07 02:24:27;;;;;;;5.10;0.80;;;;;;;13.03;71.17;99565.17;1777102;79;20959;-60
2022/07/07 02:26:54;;;;;;;3.33;0.70;;;;;;;13.02;71.17;99568.70;1777826;79;21178;-60
2022/07/07 02:29:21;;;;;;;1.17;0.50;;;;;;;13.02;71.24;99563.46;1769136;79;20954;-60
2022/07/07 02:31:47;;;;;;;3.67;0.90;;;;;;;13.04;71.27;99566.84;1774095;79;21076;-60
2022/07/07 02:34:15;;;;;;;3.07;1.20;;;;;;;13.04;71.32;99573.39;1774916;79;20977;-60
2022/07/07 02:36:41;;;;;;;;;;;;;;;13.06;71.33;99572.84;1772500;79;20994;-61
2022/07/07 02:39:08;;;;;;;1.77;0.80;;;;;;;13.06;71.37;99570.22;1767420;79;20155;-60
2022/07/07 02:41:34;;;;;;;4.13;0.50;;;;;;;13.04;71.31;99569.46;1775586;79;20979;-60
2022/07/07 02:44:01;;;;;;;3.25;0.70;;;;;;;13.02;71.33;99563.46;1772490;79;21443;-61
2022/07/07 02:46:48;;;;;;;1.95;0.88;;;;;;;13.01;71.35;99569.65;1771231;79;21489;-60
2022/07/07 02:49:14;;;;;;;1.47;0.47;;;;;;;13.01;71.44;99564.41;1747940;81;21169;-60
2022/07/07 02:51:41;;;;;;;2.45;0.80;;;;;;;13.01;71.41;99561.78;1749304;81;21030;-61
2022/07/07 02:54:08;;;;;;;2.08;0.50;;;;;;;13.02;71.45;99566.08;1751273;81;21056;-61
2022/07/07 02:56:35;;;;;;;1.67;0.50;;;;;;;13.05;71.49;99567.23;1726037;81;21047;-61
2022/07/07 02:59:01;;;;;;;2.83;0.77;;;;;;;13.07;71.47;99565.81;1710321;82;21063;-62
2022/07/07 03:01:28;;;;;;;4.92;1.10;;;;;;;13.07;71.46;99561.41;1741982;81;21271;-60
2022/07/07 03:03:55;;;;;;;4.83;0.77;;;;;;;13.06;71.47;99559.73;1743365;81;21001;-61
2022/07/07 03:06:22;;;;;;;2.60;0.88;;;;;;;13.07;71.51;99564.03;1742230;81;22300;-61
2022/07/07 03:08:48;;;;;;;3.70;0.73;;;;;;;13.09;71.42;99561.33;1719378;81;21407;-60
2022/07/07 03:11:15;;;;;;;3.53;0.90;;;;;;;13.09;71.42;99561.33;1713547;82;22314;-61
2022/07/07 03:13:42;;;;;;;3.80;0.87;;;;;;;13.09;71.57;99558.24;1708124;82;21040;-60
2022/07/07 03:16:08;;;;;;;10.33;0.67;;;;;;;13.09;71.55;99559.55;1695580;82;21647;-60
2022/07/07 03:18:35;;;;;;;4.23;1.07;;;;;;;13.09;71.59;99553.47;1741437;81;21646;-60
2022/07/07 03:21:02;;;;;;;14.35;1.25;;;;;;;13.08;71.61;99548.70;1721837;81;21133;-60
2022/07/07 03:23:29;;;;;;;1.62;0.47;;;;;;;13.08;71.64;99548.70;1724665;81;21116;-61
2022/07/07 03:25:56;;;;;;;8.23;0.75;;;;;;;13.09;71.59;99548.23;1731157;81;21643;-60
2022/07/07 03:28:22;;;;;;;4.30;0.87;;;;;;;13.10;71.66;99546.81;1765425;79;20955;-60
2022/07/07 03:30:49;;;;;;;9.50;0.90;;;;;;;13.11;71.69;99541.96;1762955;79;21049;-60
2022/07/07 03:33:16;;;;;;;1.67;0.50;;;;;;;13.12;71.69;99538.39;1714875;82;21436;-60
2022/07/07 03:35:43;;;;;;;2.25;0.82;;;;;;;13.15;71.78;99542.14;1699899;82;21093;-61
2022/07/07 03:38:10;;;;;;;4.03;0.60;;;;;;;13.23;71.82;99539.53;1757402;79;21110;-61
2022/07/07 03:40:37;;;;;;;4.22;0.70;;;;;;;13.26;71.79;99534.96;1751241;79;21480;-61
2022/07/07 03:43:03;;;;;;;2.93;0.90;;;;;;;13.34;71.78;99543.68;1721612;81;21105;-61
2022/07/07 03:45:30;;;;;;;2.62;0.60;;;;;;;13.41;71.83;99546.28;1723207;81;22443;-61
2022/07/07 03:47:57;;;;;;;3.17;0.60;;;;;;;13.46;71.76;99541.59;1746680;81;21048;-61
2022/07/07 03:50:24;;;;;;;4.37;0.98;;;;;;;13.52;71.79;99542.52;1767906;79;21123;-61
2022/07/07 03:52:51;;;;;;;5.40;0.80;;;;;;;13.58;71.71;99530.36;1767461;79;21001;-62
2022/07/07 03:55:18;;;;;;;4.37;0.78;;;;;;;13.65;71.76;99534.27;1752993;79;21000;-62
2022/07/07 03:57:45;;;;;;;11.18;1.22;;;;;;;13.71;71.65;99530.41;1753657;79;21853;-61
2022/07/07 04:00:13;;;;;;;3.12;0.60;;;;;;;13.74;71.62;99530.69;1720888;81;21017;-62
2022/07/07 04:02:40;;;;;;;3.33;0.75;;;;;;;13.81;71.72;99535.94;1714189;82;21118;-62
2022/07/07 04:05:08;;;;;;;3.62;1.05;;;;;;;13.90;71.63;99532.72;1738190;81;21046;-62
2022/07/07 04:07:35;;;;;;;2.85;0.75;;;;;;;13.97;71.61;99536.62;1737401;81;21618;-62
2022/07/07 04:10:04;;;;;;;30.17;4.17;;;;;;;14.09;71.70;99529.76;1742222;81;21047;-62
2022/07/07 04:12:32;;;;;;;3.12;0.60;;;;;;;14.18;71.48;99529.16;1739723;81;21029;-61
2022/07/07 04:14:58;;;;;;;3.83;0.70;;;;;;;14.29;71.46;99531.08;1741398;81;21117;-62
2022/07/07 04:17:25;;;;;;;19.42;1.22;;;;;;;14.41;71.42;99527.63;1742226;81;21005;-62
2022/07/07 04:19:52;;;;;;;4.80;1.12;;;;;;;14.49;71.31;99521.41;1738743;81;26503;-62
2022/07/07 04:22:19;;;;;;;5.30;0.60;;;;;;;14.62;71.21;99521.92;1736635;81;22295;-61
2022/07/07 04:24:45;;;;;;;47.98;3.98;;;;;;;14.73;71.02;99518.96;1740429;81;21032;-62
2022/07/07 04:27:12;;;;;;;10.00;1.62;;;;;;;14.78;70.97;99523.41;1738929;81;21026;-62
2022/07/07 04:29:39;;;;;;;2.22;0.55;;;;;;;14.83;70.88;99521.80;1741189;81;21813;-62
2022/07/07 04:32:08;;;;;;;3.20;0.57;;;;;;;14.92;70.86;99518.53;1738341;81;21113;-63
2022/07/07 04:34:35;;;;;;;2.58;0.60;;;;;;;15.64;72.24;99521.87;1761157;79;21069;-62
2022/07/07 04:37:01;;;;;;;3.42;0.90;;;;;;;16.55;70.78;99513.45;1760171;79;21040;-63
2022/07/07 04:39:29;;;;;;;5.15;0.65;;;;;;;17.10;70.99;99513.23;1722835;79;21081;-63
2022/07/07 04:41:55;;;;;;;;;;;;;;;18.42;71.09;99518.50;1759196;79;21127;-63
2022/07/07 04:44:22;;;;;;;1.37;0.53;;;;;;;19.77;70.14;99510.93;1756098;79;20571;-63
2022/07/07 04:46:48;;;;;;;2.12;0.75;;;;;;;20.88;69.87;99515.48;1756181;79;21431;-63
2022/07/07 04:49:15;;;;;;;2.12;0.65;;;;;;;22.01;68.63;99508.60;1755150;79;28278;-63
2022/07/07 04:51:42;;;;;;;;;;;;;;;23.03;68.98;99513.14;1763949;79;20949;-64
2022/07/07 04:54:09;;;;;;;4.55;0.82;;;;;;;24.08;66.51;99495.88;1762082;79;20250;-65
2022/07/07 04:56:36;;;;;;;2.35;0.78;;;;;;;24.75;66.92;99497.89;1767791;79;21061;-64
2022/07/07 04:59:02;;;;;;;13.05;1.40;;;;;;;25.39;66.11;99494.42;1730010;79;21475;-64
2022/07/07 05:01:29;;;;;;;1.52;0.60;;;;;;;25.97;65.65;99490.46;1762393;79;21037;-64
2022/07/07 05:03:56;;;;;;;3.02;1.00;;;;;;;26.59;64.50;99485.99;1758242;79;21515;-64
2022/07/07 05:06:23;;;;;;;2.85;0.80;;;;;;;27.35;64.82;99482.16;1761787;79;21037;-65
2022/07/07 05:08:51;;;;;;;1.85;0.50;;;;;;;28.05;63.31;99482.57;1763566;79;20989;-64
2022/07/07 05:11:17;;;;;;;39.55;4.47;;;;;;;28.60;61.84;99483.71;1758780;79;21135;-65
2022/07/07 05:13:44;;;;;;;25.43;2.58;;;;;;;28.60;61.14;99477.52;1760074;79;21100;-65
2022/07/07 05:16:11;;;;;;;7.53;1.27;;;;;;;28.98;60.11;99475.27;1761066;79;21558;-64
2022/07/07 05:18:37;;;;;;;2.52;0.72;;;;;;;29.22;59.38;99477.50;1760386;79;21096;-64
2022/07/07 05:21:05;;;;;;;28.45;3.50;;;;;;;29.30;58.00;99476.52;1759836;79;21021;-64
2022/07/07 05:23:31;;;;;;;4.30;1.00;;;;;;;29.64;58.12;99472.12;1760367;79;21634;-65
2022/07/07 05:25:58;;;;;;;1.50;0.53;;;;;;;30.20;57.19;99472.34;1704339;82;20977;-65
2022/07/07 05:28:25;;;;;;;24.12;2.72;;;;;;;30.34;55.40;99471.34;1727509;81;21032;-64
2022/07/07 05:30:52;;;;;;;2.22;0.82;;;;;;;30.22;53.63;99471.62;1744228;81;21650;-64
2022/07/07 05:33:19;;;;;;;17.73;2.08;;;;;;;30.11;53.75;99473.88;1761997;79;20965;-64
2022/07/07 05:35:45;;;;;;;7.40;1.22;;;;;;;30.02;52.68;99469.70;1755058;79;21435;-63
2022/07/07 05:38:12;;;;;;;20.88;3.35;;;;;;;30.10;52.29;99469.52;1758350;79;20999;-64
2022/07/07 05:40:39;;;;;;;3.08;0.82;;;;;;;29.77;50.92;99465.93;1756510;79;21026;-64
2022/07/07 05:43:06;;;;;;;15.08;2.42;;;;;;;29.59;50.09;99470.00;1752856;79;21830;-64
2022/07/07 05:45:32;;;;;;;2.85;0.55;;;;;;;29.31;49.70;99463.89;1731331;81;21307;-65
2022/07/07 05:47:59;;;;;;;3.47;0.70;;;;;;;29.32;49.11;99465.55;1741292;81;22232;-66
2022/07/07 05:50:26;;;;;;;3.45;0.82;;;;;;;29.46;49.01;99471.29;1745363;81;21223;-61
2022/07/07 05:52:53;;;;;;;3.05;0.88;;;;;;;29.85;48.74;99460.36;1739495;81;21600;-62
2022/07/07 05:55:20;;;;;;;3.17;0.82;;;;;;;29.96;46.75;99459.77;1744848;81;22328;-64
2022/07/07 05:57:46;;;;;;;2.58;0.78;;;;;;;30.05;47.32;99463.94;1746064;81;21606;-64
2022/07/07 06:00:14;;;;;;;6.67;1.40;;;;;;;29.96;46.40;99458.94;1747274;81;21011;-69
2022/07/07 06:02:41;;;;;;;2.50;0.80;;;;;;;29.97;46.32;99462.78;1759555;79;21020;-67
2022/07/07 06:05:08;;;;;;;3.02;0.88;;;;;;;30.09;45.74;99465.17;1759367;79;21100;-63
2022/07/07 06:07:35;;;;;;;4.50;0.90;;;;;;;30.00;44.89;99461.03;1760785;79;21025;-68
2022/07/07 06:10:03;;;;;;;9.05;1.30;;;;;;;29.72;44.12;99458.48;1727823;81;21045;-66
2022/07/07 06:12:30;;;;;;;2.37;0.80;;;;;;;29.66;44.13;99452.06;1728518;81;21082;-65
2022/07/07 06:14:57;;;;;;;17.02;2.08;;;;;;;29.65;43.42;99455.77;1763840;79;21171;-65
2022/07/07 06:17:26;;;;;;;4.87;1.00;;;;;;;29.59;43.54;99451.17;1767065;79;21080;-65
2022/07/07 06:19:52;;;;;;;12.95;2.45;;;;;;;29.73;43.12;99453.94;1728312;81;21116;-65
2022/07/07 06:22:41;;;;;;;16.95;1.90;;;;;;;29.65;42.60;99439.63;1758106;79;21628;-63
2022/07/07 06:25:09;;;;;;;65.87;6.50;;;;;;;29.65;42.08;99434.23;1735852;81;21300;-62
2022/07/07 06:27:36;;;;;;;4.67;1.12;;;;;;;29.65;42.21;99445.00;1754002;81;21009;-64
2022/07/07 06:30:05;;;;;;;4.42;0.90;;;;;;;29.94;41.47;99434.94;1730392;81;20982;-64
2022/07/07 06:32:32;;;;;;;2.42;0.75;;;;;;;29.81;40.88;99434.91;1722635;81;20945;-65
2022/07/07 06:34:59;;;;;;;5.58;1.85;;;;;;;30.02;41.33;99439.27;1725087;81;21609;-65
2022/07/07 06:37:26;;;;;;;33.92;4.97;;;;;;;30.35;40.54;99439.31;1725215;81;22329;-65
2022/07/07 06:39:52;;;;;;;4.90;1.50;;;;;;;30.35;40.16;99439.31;1752780;81;21524;-66
2022/07/07 06:42:19;;;;;;;5.85;0.80;;;;;;;29.63;39.45;99436.33;1753650;79;20913;-64
2022/07/07 06:44:47;;;;;;;39.25;4.12;;;;;;;28.59;38.67;99439.05;1730022;81;21503;-65
2022/07/07 06:47:14;;;;;;;5.22;0.80;;;;;;;27.69;39.44;99437.80;1748119;81;20993;-65
2022/07/07 06:49:40;;;;;;;4.20;0.75;;;;;;;26.92;39.33;99436.43;1749945;81;21461;-64
2022/07/07 06:52:07;;;;;;;6.65;1.25;;;;;;;26.35;39.34;99440.98;1740015;81;21086;-65
2022/07/07 06:54:34;;;;;;;3.65;0.95;;;;;;;25.89;39.30;99437.02;1746074;81;20978;-65
2022/07/07 06:57:01;;;;;;;2.92;0.70;;;;;;;25.25;39.34;99437.70;1745648;81;20972;-64
2022/07/07 06:59:28;;;;;;;4.17;0.70;;;;;;;24.70;39.44;99442.87;1746044;81;21550;-64
2022/07/07 07:01:54;;;;;;;3.45;0.85;;;;;;;24.39;39.77;99445.86;1752479;79;22188;-64
2022/07/07 07:04:23;;;;;;;6.30;1.00;;;;;;;24.25;39.75;99434.86;1759783;79;21377;-64
2022/07/07 07:06:50;;;;;;;14.15;1.65;;;;;;;23.97;39.78;99441.53;1735391;81;21001;-65
2022/07/07 07:09:17;;;;;;;23.20;2.85;;;;;;;23.92;40.30;99443.84;1749946;81;22264;-65
2022/07/07 07:11:44;;;;;;;2.42;0.90;;;;;;;24.14;40.34;99439.19;1759185;79;21044;-64
2022/07/07 07:14:10;;;;;;;20.80;3.08;;;;;;;24.06;40.11;99444.05;1759850;79;22270;-64
2022/07/07 07:16:37;;;;;;;;;;;;;;;23.79;40.17;99441.69;1735652;81;21070;-64
2022/07/07 07:19:03;;;;;;;;;;;;;;;23.85;40.46;99443.18;1761305;79;20194;-64
2022/07/07 07:21:30;;;;;;;2.65;0.78;;;;;;;24.19;40.54;99443.53;1757427;79;20216;-64
2022/07/07 07:23:57;;;;;;;2.95;0.72;;;;;;;24.61;40.32;99434.52;1761164;79;22276;-64
2022/07/07 07:26:24;;;;;;;3.50;1.02;;;;;;;24.76;40.57;99432.84;1723718;81;21114;-64
2022/07/07 07:28:54;;;;;;;5.42;1.25;;;;;;;25.07;40.67;99436.59;1704115;82;20997;-64
2022/07/07 07:31:21;;;;;;;7.15;1.00;;;;;;;25.32;40.71;99428.82;1704171;82;21009;-64
2022/07/07 07:33:48;;;;;;;5.60;1.02;;;;;;;25.48;40.56;99429.22;1737619;81;21065;-64
2022/07/07 07:36:15;;;;;;;2.00;0.95;;;;;;;25.42;40.69;99429.92;1731159;81;21108;-64
2022/07/07 07:38:43;;;;;;;5.45;0.95;;;;;;;25.54;40.75;99430.35;1704441;82;21528;-65
2022/07/07 07:41:11;;;;;;;13.62;2.35;;;;;;;25.60;40.81;99427.83;1727085;81;21061;-64
2022/07/07 07:43:40;;;;;;;3.90;1.25;;;;;;;25.89;40.72;99423.65;1730361;81;21663;-64
2022/07/07 07:46:06;;;;;;;6.28;1.12;;;;;;;25.68;40.37;99422.43;1728639;81;21100;-64
2022/07/07 07:48:52;;;;;;;9.50;1.63;;;;;;;25.49;40.29;99417.53;1784179;78;27972;-63
2022/07/07 07:51:19;;;;;;;5.65;1.12;;;;;;;25.40;40.31;99411.89;1749573;80;21017;-63
2022/07/07 07:53:45;;;;;;;;;;;;;;;25.27;40.23;99408.97;1776076;80;21437;-64
2022/07/07 07:56:12;;;;;;;53.17;5.85;;;;;;;25.03;39.92;99417.38;1771296;80;20377;-63
2022/07/07 07:58:39;;;;;;;3.67;0.98;;;;;;;24.88;40.17;99420.45;1776090;80;21737;-63
2022/07/07 08:01:06;;;;;;;;;;;;;;;24.60;39.99;99408.84;1775298;80;21036;-65
2022/07/07 08:03:33;;;;;;;23.12;2.27;;;;;;;24.46;40.39;99414.87;1771982;80;20559;-63
2022/07/07 08:05:59;;;;;;;127.47;12.30;;;;;;;24.39;40.44;99413.84;1769051;80;22241;-63
2022/07/07 08:09:18;;;;;;;8.10;1.33;;;;;;;24.05;40.19;99413.03;1842730;76;22819;-67
2022/07/07 08:11:45;;;;;;;4.37;0.80;;;;;;;23.85;40.31;99416.52;1822116;77;21649;-69
2022/07/07 08:14:12;;;;;;;25.30;3.02;;;;;;;23.77;40.48;99423.17;1817613;77;21045;-70
2022/07/07 08:16:38;;;;;;;;;;;;;;;23.71;40.67;99426.50;1817130;77;21036;-68
2022/07/07 08:19:05;;;;;;;5.08;0.93;;;;;;;23.73;40.73;99425.84;1818860;77;20184;-61
2022/07/07 08:21:32;;;;;;;31.30;4.45;;;;;;;23.65;40.62;99419.14;1818576;77;21078;-66
2022/07/07 08:23:59;;;;;;;3.47;0.62;;;;;;;23.51;40.83;99426.44;1814385;77;21058;-64
2022/07/07 08:26:26;;;;;;;33.48;5.95;;;;;;;23.39;40.88;99421.92;1818098;77;21603;-63
2022/07/07 08:28:54;;;;;;;3.72;1.10;;;;;;;23.19;40.89;99430.17;1818646;77;20910;-63
2022/07/07 08:31:21;;;;;;;4.35;0.70;;;;;;;23.03;40.98;99430.60;1789778;77;20965;-63
2022/07/07 08:33:48;;;;;;;5.03;0.90;;;;;;;22.77;41.13;99432.77;1818403;77;21605;-62
2022/07/07 08:36:14;;;;;;;4.97;0.72;;;;;;;22.52;41.33;99436.61;1817274;77;21548;-62
2022/07/07 08:38:41;;;;;;;10.72;1.45;;;;;;;22.32;41.53;99439.10;1818228;77;22894;-63
2022/07/07 08:41:08;;;;;;;4.42;0.70;;;;;;;22.02;41.45;99443.83;1820129;77;20951;-63
2022/07/07 08:43:35;;;;;;;8.08;1.35;;;;;;;21.84;41.72;99437.67;1821068;77;21542;-63
2022/07/07 08:46:03;;;;;;;5.10;1.07;;;;;;;21.76;42.07;99442.90;1819357;77;28353;-63
2022/07/07 08:48:29;;;;;;;2.83;0.80;;;;;;;21.74;42.19;99435.59;1816720;77;21099;-63
2022/07/07 08:50:59;;;;;;;97.92;8.83;;;;;;;21.58;42.24;99433.09;1813028;77;21403;-62
2022/07/07 08:53:29;;;;;;;6.08;0.90;;;;;;;21.55;42.35;99434.73;1814308;77;21746;-63
2022/07/07 08:55:57;;;;;;;7.22;0.62;;;;;;;21.53;42.83;99435.36;1818277;77;21661;-64
2022/07/07 08:58:24;;;;;;;3.08;0.70;;;;;;;21.55;43.01;99430.74;1777510;79;21029;-65
2022/07/07 09:00:53;;;;;;;9.60;0.85;;;;;;;21.53;42.86;99435.36;1779631;78;21403;-63
2022/07/07 09:03:19;;;;;;;7.67;0.75;;;;;;;21.45;43.15;99430.82;1752873;80;21470;-65
2022/07/07 09:05:48;;;;;;;3.90;0.60;;;;;;;21.47;43.42;99438.63;1754386;79;21076;-64
2022/07/07 09:08:23;;;;;;;7.20;1.00;;;;;;;21.63;43.53;99428.67;1753609;80;21038;-64
2022/07/07 09:10:51;;;;;;;4.55;0.80;;;;;;;21.59;43.55;99431.27;1752927;81;22093;-65
2022/07/07 09:13:28;;;;;;;9.63;1.25;;;;;;;21.65;43.71;99428.87;1754090;80;21127;-65
2022/07/07 09:16:02;;;;;;;7.03;1.20;;;;;;;21.80;43.94;99423.03;1754858;81;21101;-65
2022/07/07 09:18:38;;;;;;;6.67;0.85;;;;;;;21.97;43.81;99422.18;1762482;79;21496;-65
2022/07/07 09:21:31;;;;;;;2.22;0.60;;;;;;;22.06;44.14;99419.92;1750949;79;21146;-65
2022/07/07 09:24:01;;;;;;;2.30;0.50;;;;;;;22.17;44.01;99422.02;1746324;80;21041;-64
2022/07/07 09:26:38;;;;;;;3.40;0.68;;;;;;;22.32;44.29;99420.02;1755899;80;21057;-65
2022/07/07 09:29:07;;;;;;;3.08;0.80;;;;;;;22.50;44.26;99418.62;1752616;79;21022;-65
2022/07/07 09:31:57;;;;;;;4.17;0.90;;;;;;;22.69;44.41;99414.09;1750430;81;20950;-64
2022/07/07 09:34:29;;;;;;;2.67;0.80;;;;;;;22.94;44.30;99407.90;1753062;79;21016;-65
2022/07/07 09:39:50;;;;;;;3.40;0.82;;;;;;;23.36;44.52;99412.41;1751101;79;20978;-66
2022/07/07 09:42:32;;;;;;;3.95;0.88;;;;;;;23.49;44.26;99413.77;1795611;78;21083;-64
2022/07/07 09:45:10;;;;;;;22.10;3.17;;;;;;;23.62;44.09;99419.47;1761560;79;21052;-63
2022/07/07 09:47:37;;;;;;;6.20;0.65;;;;;;;23.63;43.95;99415.80;1763038;79;20961;-64
2022/07/07 09:50:11;;;;;;;1.37;0.60;;;;;;;23.71;43.93;99419.02;1758321;79;23240;-64
2022/07/07 09:52:42;;;;;;;37.65;4.70;;;;;;;23.81;44.11;99421.86;1763892;79;21018;-64
2022/07/07 09:55:11;;;;;;;4.05;0.85;;;;;;;24.02;44.41;99420.53;1760251;80;21418;-65
2022/07/07 09:57:40;;;;;;;2.20;0.72;;;;;;;24.20;44.22;99426.55;1764714;79;21023;-63
2022/07/07 10:00:09;;;;;;;2.85;0.70;;;;;;;24.26;43.68;99428.55;1758458;79;21602;-63
2022/07/07 10:02:37;;;;;;;5.72;1.07;;;;;;;24.14;43.92;99424.52;1758754;79;21044;-63
2022/07/07 10:05:06;;;;;;;2.37;0.60;;;;;;;24.02;43.88;99421.87;1759298;79;21074;-63
2022/07/07 10:07:34;;;;;;;2.25;0.55;;;;;;;23.83;43.88;99419.84;1758706;79;21146;-64
2022/07/07 10:10:05;;;;;;;9.73;1.35;;;;;;;23.70;43.85;99422.15;1756813;80;21038;-64
2022/07/07 10:12:33;;;;;;;2.60;0.70;;;;;;;23.62;43.87;99432.79;1755269;81;20918;-64
2022/07/07 10:15:11;;;;;;;1.60;0.50;;;;;;;23.66;43.84;99429.62;1755854;79;21089;-64
2022/07/07 10:17:40;;;;;;;2.12;0.55;;;;;;;23.58;43.72;99430.10;1753924;80;21593;-62
2022/07/07 10:20:08;;;;;;;77.05;7.70;;;;;;;23.54;43.77;99422.11;1753655;80;21078;-63
2022/07/07 10:22:36;;;;;;;6.62;1.50;;;;;;;23.41;43.68;99425.23;1756546;79;21000;-62
2022/07/07 10:25:09;;;;;;;2.52;0.53;;;;;;;23.26;43.76;99418.37;1744199;81;21121;-63
2022/07/07 10:27:45;;;;;;;1.82;0.50;;;;;;;23.18;44.07;99430.32;1752470;81;21142;-65
2022/07/07 10:30:13;;;;;;;2.20;0.57;;;;;;;23.25;44.24;99426.03;1751326;80;21005;-62
2022/07/07 10:32:52;;;;;;;1.87;0.57;;;;;;;23.13;44.09;99429.96;1756367;81;22201;-62
2022/07/07 10:35:21;;;;;;;82.25;12.25;;;;;;;23.07;44.21;99427.95;1755641;79;21149;-62
2022/07/07 10:37:52;;;;;;;9.13;0.95;;;;;;;22.82;44.31;99430.45;1752101;81;21084;-63
2022/07/07 10:40:29;;;;;;;4.45;0.65;;;;;;;22.55;44.21;99439.45;1750041;79;21036;-61
2022/07/07 10:43:32;;;;;;;8.00;0.98;;;;;;;22.19;44.36;99438.69;1757747;81;21690;-63
2022/07/07 10:46:04;;;;;;;2.22;0.47;;;;;;;21.85;44.59;99443.34;1754711;79;22091;-62
2022/07/07 10:48:50;;;;;;;3.52;0.68;;;;;;;21.53;44.74;99445.98;1759685;80;21569;-63
2022/07/07 10:51:27;;;;;;;1.27;0.42;;;;;;;21.31;44.92;99444.55;1735443;81;21123;-61
2022/07/07 10:54:10;;;;;;;13.78;1.35;;;;;;;21.01;45.12;99449.67;1735337;81;21625;-61
2022/07/07 10:57:02;;;;;;;6.17;1.40;;;;;;;20.90;45.65;99451.17;1733160;81;21003;-61
2022/07/07 10:59:33;;;;;;;1.05;0.60;;;;;;;20.86;45.83;99447.13;1733492;81;21559;-61
2022/07/07 11:02:09;;;;;;;9.05;1.40;;;;;;;20.74;45.92;99445.97;1725988;81;21062;-61
2022/07/07 11:04:51;;;;;;;3.83;0.40;;;;;;;20.62;46.28;99448.46;1730770;81;21068;-62
2022/07/07 11:07:21;;;;;;;4.25;0.50;;;;;;;20.53;46.41;99450.66;1731165;81;21037;-62
2022/07/07 11:10:11;;;;;;;3.87;0.60;;;;;;;20.44;46.59;99450.13;1768241;78;21034;-61
2022/07/07 11:12:42;;;;;;;2.72;0.72;;;;;;;20.29;46.82;99447.92;1771342;79;21091;-61
2022/07/07 11:15:30;;;;;;;3.77;0.90;;;;;;;20.11;47.15;99459.73;1747327;79;20954;-61
2022/07/07 11:18:09;;;;;;;5.33;0.90;;;;;;;20.08;47.54;99455.18;1776338;79;20989;-61
2022/07/07 11:20:59;;;;;;;6.00;0.70;;;;;;;20.09;47.72;99454.22;1781823;78;21804;-60
2022/07/07 11:23:49;;;;;;;2.90;0.60;;;;;;;20.27;47.84;99461.80;1782710;78;22079;-61
2022/07/07 11:26:19;;;;;;;3.40;0.62;;;;;;;20.46;48.03;99452.16;1779609;78;21080;-62
2022/07/07 11:29:19;;;;;;;3.02;0.50;;;;;;;20.66;48.22;99449.00;1782663;78;21298;-63
2022/07/07 11:32:15;;;;;;;2.87;0.72;;;;;;;20.84;48.34;99451.73;1721036;81;21016;-61
2022/07/07 11:34:51;;;;;;;32.35;3.52;;;;;;;20.95;48.42;99459.55;1722478;81;20914;-62
2022/07/07 11:37:42;;;;;;;3.40;0.80;;;;;;;21.04;48.37;99463.97;1723014;81;21024;-62
2022/07/07 11:40:30;;;;;;;1.60;0.60;;;;;;;21.07;48.40;99458.37;1715356;81;20990;-62
2022/07/07 11:43:26;;;;;;;6.45;1.07;;;;;;;21.00;48.60;99471.86;1721201;81;21028;-64
2022/07/07 11:46:09;;;;;;;1.15;0.55;;;;;;;20.97;48.64;99472.16;1720596;81;21073;-61
2022/07/07 11:48:49;;;;;;;1.42;0.50;;;;;;;20.99;49.00;99471.53;1720261;81;21574;-62